sensor_id;sensor_type;location;lat;lon;timestamp;P1;P2;P0
65556;PMS3003;52200;53.490;14.376;2023-07-09T00:01:36;13.00;8.80;5.00
65556;PMS3003;52200;53.490;14.376;2023-07-09T00:04:02;12.50;8.25;4.00
65556;PMS3003;52200;53.490;14.376;2023-07-09T00:06:27;15.00;10.25;5.25
65556;PMS3003;52200;53.490;14.376;2023-07-09T00:08:53;16.25;11.75;6.75
65556;PMS3003;52200;53.490;14.376;2023-07-09T00:11:18;15.00;10.00;5.25
65556;PMS3003;52200;53.490;14.376;2023-07-09T00:13:44;15.00;9.75;5.00
65556;PMS3003;52200;53.490;14.376;2023-07-09T00:16:16;17.60;13.80;7.80
65556;PMS3003;52200;53.490;14.376;2023-07-09T00:18:46;15.60;10.60;6.40
65556;PMS3003;52200;53.490;14.376;2023-07-09T00:21:13;14.80;10.40;5.00
65556;PMS3003;52200;53.490;14.376;2023-07-09T00:23:40;13.60;9.60;4.40
65556;PMS3003;52200;53.490;14.376;2023-07-09T00:26:10;14.40;9.00;4.00
65556;PMS3003;52200;53.490;14.376;2023-07-09T00:28:38;13.60;9.40;5.00
65556;PMS3003;52200;53.490;14.376;2023-07-09T00:31:09;16.40;8.60;5.00
65556;PMS3003;52200;53.490;14.376;2023-07-09T00:33:38;14.40;9.40;4.00
65556;PMS3003;52200;53.490;14.376;2023-07-09T00:36:04;12.25;7.50;5.00
65556;PMS3003;52200;53.490;14.376;2023-07-09T00:38:40;12.40;8.80;4.80
65556;PMS3003;52200;53.490;14.376;2023-07-09T00:41:11;12.00;8.75;3.75
65556;PMS3003;52200;53.490;14.376;2023-07-09T00:43:42;13.40;9.00;4.00
65556;PMS3003;52200;53.490;14.376;2023-07-09T00:48:59;10.40;6.80;4.00
65556;PMS3003;52200;53.490;14.376;2023-07-09T00:51:30;12.80;8.20;4.40
65556;PMS3003;52200;53.490;14.376;2023-07-09T00:53:58;12.80;8.00;4.00
65556;PMS3003;52200;53.490;14.376;2023-07-09T00:56:33;12.00;6.80;3.00
65556;PMS3003;52200;53.490;14.376;2023-07-09T00:59:04;11.40;8.00;3.00
65556;PMS3003;52200;53.490;14.376;2023-07-09T01:01:34;10.00;4.20;2.40
65556;PMS3003;52200;53.490;14.376;2023-07-09T01:04:00;9.00;4.80;3.20
65556;PMS3003;52200;53.490;14.376;2023-07-09T01:06:30;11.20;6.60;3.40
65556;PMS3003;52200;53.490;14.376;2023-07-09T01:09:00;11.40;7.00;3.00
65556;PMS3003;52200;53.490;14.376;2023-07-09T01:11:26;11.20;7.00;4.00
65556;PMS3003;52200;53.490;14.376;2023-07-09T01:13:57;10.80;7.40;4.00
65556;PMS3003;52200;53.490;14.376;2023-07-09T01:16:25;11.20;8.20;4.80
65556;PMS3003;52200;53.490;14.376;2023-07-09T01:18:55;10.40;6.00;3.40
65556;PMS3003;52200;53.490;14.376;2023-07-09T01:21:20;11.75;7.00;4.00
65556;PMS3003;52200;53.490;14.376;2023-07-09T01:23:46;13.20;9.80;4.80
65556;PMS3003;52200;53.490;14.376;2023-07-09T01:26:16;11.60;7.00;5.00
65556;PMS3003;52200;53.490;14.376;2023-07-09T01:28:43;12.80;8.60;5.00
65556;PMS3003;52200;53.490;14.376;2023-07-09T01:31:12;11.20;7.00;4.40
65556;PMS3003;52200;53.490;14.376;2023-07-09T01:33:40;14.40;8.60;5.00
65556;PMS3003;52200;53.490;14.376;2023-07-09T01:36:14;12.40;6.40;4.00
65556;PMS3003;52200;53.490;14.376;2023-07-09T01:38:48;12.60;9.00;5.00
65556;PMS3003;52200;53.490;14.376;2023-07-09T01:41:15;12.60;9.20;5.00
65556;PMS3003;52200;53.490;14.376;2023-07-09T01:43:41;13.40;8.80;4.00
65556;PMS3003;52200;53.490;14.376;2023-07-09T01:46:08;11.00;6.40;4.00
65556;PMS3003;52200;53.490;14.376;2023-07-09T01:48:34;12.00;5.60;4.00
65556;PMS3003;52200;53.490;14.376;2023-07-09T01:51:06;10.40;5.40;3.60
65556;PMS3003;52200;53.490;14.376;2023-07-09T01:53:34;11.00;6.60;4.00
65556;PMS3003;52200;53.490;14.376;2023-07-09T01:56:01;9.60;5.20;3.00
65556;PMS3003;52200;53.490;14.376;2023-07-09T01:58:27;11.40;6.40;3.00
65556;PMS3003;52200;53.490;14.376;2023-07-09T02:00:56;12.20;6.20;3.00
65556;PMS3003;52200;53.490;14.376;2023-07-09T02:03:22;12.00;6.60;3.00
65556;PMS3003;52200;53.490;14.376;2023-07-09T02:05:50;9.00;4.00;2.00
65556;PMS3003;52200;53.490;14.376;2023-07-09T02:08:18;8.80;4.60;2.20
65556;PMS3003;52200;53.490;14.376;2023-07-09T02:10:44;9.40;5.00;3.00
65556;PMS3003;52200;53.490;14.376;2023-07-09T02:13:10;11.20;6.60;3.00
65556;PMS3003;52200;53.490;14.376;2023-07-09T02:15:36;11.00;4.80;3.00
65556;PMS3003;52200;53.490;14.376;2023-07-09T02:18:01;9.00;4.25;2.00
65556;PMS3003;52200;53.490;14.376;2023-07-09T02:20:27;9.00;3.60;2.80
65556;PMS3003;52200;53.490;14.376;2023-07-09T02:22:53;12.00;5.75;3.50
65556;PMS3003;52200;53.490;14.376;2023-07-09T02:25:18;9.00;4.25;2.75
65556;PMS3003;52200;53.490;14.376;2023-07-09T02:27:44;9.25;5.00;3.00
65556;PMS3003;52200;53.490;14.376;2023-07-09T02:30:09;8.75;4.00;2.25
65556;PMS3003;52200;53.490;14.376;2023-07-09T02:32:36;9.40;4.80;2.00
65556;PMS3003;52200;53.490;14.376;2023-07-09T02:35:02;9.80;4.60;2.40
65556;PMS3003;52200;53.490;14.376;2023-07-09T02:37:28;9.00;5.00;3.00
65556;PMS3003;52200;53.490;14.376;2023-07-09T02:39:53;13.50;6.50;2.75
65556;PMS3003;52200;53.490;14.376;2023-07-09T02:42:19;10.00;5.80;2.60
65556;PMS3003;52200;53.490;14.376;2023-07-09T02:44:46;10.40;5.40;3.00
65556;PMS3003;52200;53.490;14.376;2023-07-09T02:47:12;9.20;5.00;3.00
65556;PMS3003;52200;53.490;14.376;2023-07-09T02:49:38;11.00;4.60;2.00
65556;PMS3003;52200;53.490;14.376;2023-07-09T02:52:05;10.20;5.40;3.00
65556;PMS3003;52200;53.490;14.376;2023-07-09T02:54:31;11.20;6.20;4.00
65556;PMS3003;52200;53.490;14.376;2023-07-09T02:56:56;9.25;4.50;3.00
65556;PMS3003;52200;53.490;14.376;2023-07-09T02:59:22;11.25;8.00;3.00
65556;PMS3003;52200;53.490;14.376;2023-07-09T03:01:48;11.25;6.50;3.25
65556;PMS3003;52200;53.490;14.376;2023-07-09T03:04:14;12.60;6.80;2.00
65556;PMS3003;52200;53.490;14.376;2023-07-09T03:06:40;14.50;9.00;4.00
65556;PMS3003;52200;53.490;14.376;2023-07-09T03:09:06;12.00;5.00;4.00
65556;PMS3003;52200;53.490;14.376;2023-07-09T03:11:32;11.00;8.00;4.00
65556;PMS3003;52200;53.490;14.376;2023-07-09T03:13:59;10.80;5.40;3.40
65556;PMS3003;52200;53.490;14.376;2023-07-09T03:16:28;9.80;5.20;3.00
65556;PMS3003;52200;53.490;14.376;2023-07-09T03:18:55;10.40;5.40;2.20
65556;PMS3003;52200;53.490;14.376;2023-07-09T03:21:21;9.00;4.75;4.00
65556;PMS3003;52200;53.490;14.376;2023-07-09T03:23:47;6.80;3.00;2.00
65556;PMS3003;52200;53.490;14.376;2023-07-09T03:26:13;10.25;5.25;2.00
65556;PMS3003;52200;53.490;14.376;2023-07-09T03:28:40;9.60;4.00;3.00
65556;PMS3003;52200;53.490;14.376;2023-07-09T03:31:05;10.75;5.00;2.00
65556;PMS3003;52200;53.490;14.376;2023-07-09T03:33:31;9.75;5.75;4.00
65556;PMS3003;52200;53.490;14.376;2023-07-09T03:35:56;10.00;5.00;2.00
65556;PMS3003;52200;53.490;14.376;2023-07-09T03:38:21;11.00;6.00;3.00
65556;PMS3003;52200;53.490;14.376;2023-07-09T03:40:53;11.00;5.00;4.00
65556;PMS3003;52200;53.490;14.376;2023-07-09T03:43:19;9.40;5.20;3.00
65556;PMS3003;52200;53.490;14.376;2023-07-09T03:45:45;8.80;4.20;3.00
65556;PMS3003;52200;53.490;14.376;2023-07-09T03:48:12;9.60;5.20;3.00
65556;PMS3003;52200;53.490;14.376;2023-07-09T03:50:39;10.00;5.40;4.00
65556;PMS3003;52200;53.490;14.376;2023-07-09T03:53:04;14.00;10.00;5.00
65556;PMS3003;52200;53.490;14.376;2023-07-09T03:55:33;12.40;9.20;5.80
65556;PMS3003;52200;53.490;14.376;2023-07-09T03:57:58;15.00;11.00;6.25
65556;PMS3003;52200;53.490;14.376;2023-07-09T04:00:24;12.00;9.00;5.25
65556;PMS3003;52200;53.490;14.376;2023-07-09T04:02:52;15.00;10.00;5.00
65556;PMS3003;52200;53.490;14.376;2023-07-09T04:05:17;12.00;7.25;4.50
65556;PMS3003;52200;53.490;14.376;2023-07-09T04:07:43;16.50;11.50;6.00
65556;PMS3003;52200;53.490;14.376;2023-07-09T04:10:09;13.25;9.75;5.00
65556;PMS3003;52200;53.490;14.376;2023-07-09T04:12:35;12.60;9.20;5.00
65556;PMS3003;52200;53.490;14.376;2023-07-09T04:15:02;12.00;7.20;5.00
65556;PMS3003;52200;53.490;14.376;2023-07-09T04:17:31;11.00;6.80;4.00
65556;PMS3003;52200;53.490;14.376;2023-07-09T04:19:56;15.20;11.00;5.40
65556;PMS3003;52200;53.490;14.376;2023-07-09T04:22:22;17.75;13.00;6.00
65556;PMS3003;52200;53.490;14.376;2023-07-09T04:24:47;13.75;10.50;6.00
65556;PMS3003;52200;53.490;14.376;2023-07-09T04:27:14;14.60;11.00;5.00
65556;PMS3003;52200;53.490;14.376;2023-07-09T04:29:40;14.40;11.40;7.20
65556;PMS3003;52200;53.490;14.376;2023-07-09T04:32:06;14.25;9.50;5.50
65556;PMS3003;52200;53.490;14.376;2023-07-09T04:34:36;14.80;11.60;6.00
65556;PMS3003;52200;53.490;14.376;2023-07-09T04:37:04;17.80;14.20;8.00
65556;PMS3003;52200;53.490;14.376;2023-07-09T04:39:31;18.60;13.80;8.20
65556;PMS3003;52200;53.490;14.376;2023-07-09T04:41:56;19.00;15.00;7.75
65556;PMS3003;52200;53.490;14.376;2023-07-09T04:44:22;17.00;13.75;8.00
65556;PMS3003;52200;53.490;14.376;2023-07-09T04:46:47;16.00;13.00;7.25
65556;PMS3003;52200;53.490;14.376;2023-07-09T04:49:14;20.00;16.20;9.60
65556;PMS3003;52200;53.490;14.376;2023-07-09T04:51:40;21.75;16.75;10.25
65556;PMS3003;52200;53.490;14.376;2023-07-09T04:54:05;19.00;16.25;9.00
65556;PMS3003;52200;53.490;14.376;2023-07-09T04:56:30;18.25;15.25;9.00
65556;PMS3003;52200;53.490;14.376;2023-07-09T04:58:56;19.25;16.25;9.00
65556;PMS3003;52200;53.490;14.376;2023-07-09T05:01:22;19.00;15.00;9.00
65556;PMS3003;52200;53.490;14.376;2023-07-09T05:03:47;19.25;15.75;9.00
65556;PMS3003;52200;53.490;14.376;2023-07-09T05:06:13;19.75;13.25;7.50
65556;PMS3003;52200;53.490;14.376;2023-07-09T05:08:39;18.00;13.20;9.00
65556;PMS3003;52200;53.490;14.376;2023-07-09T05:11:07;17.00;12.60;7.60
65556;PMS3003;52200;53.490;14.376;2023-07-09T05:13:32;14.25;11.00;7.00
65556;PMS3003;52200;53.490;14.376;2023-07-09T05:15:58;18.75;13.75;7.75
65556;PMS3003;52200;53.490;14.376;2023-07-09T05:18:23;17.00;11.00;7.00
65556;PMS3003;52200;53.490;14.376;2023-07-09T05:20:49;17.25;12.75;7.75
65556;PMS3003;52200;53.490;14.376;2023-07-09T05:23:15;16.25;12.00;8.00
65556;PMS3003;52200;53.490;14.376;2023-07-09T05:25:40;15.40;10.60;7.00
65556;PMS3003;52200;53.490;14.376;2023-07-09T05:28:06;20.00;13.75;8.00
65556;PMS3003;52200;53.490;14.376;2023-07-09T05:30:31;18.75;14.50;8.50
65556;PMS3003;52200;53.490;14.376;2023-07-09T05:32:57;16.75;13.00;8.00
65556;PMS3003;52200;53.490;14.376;2023-07-09T05:35:24;16.20;13.00;9.00
65556;PMS3003;52200;53.490;14.376;2023-07-09T05:37:50;17.20;13.20;9.00
65556;PMS3003;52200;53.490;14.376;2023-07-09T05:40:19;17.80;14.60;8.80
65556;PMS3003;52200;53.490;14.376;2023-07-09T05:42:46;17.20;12.80;8.60
65556;PMS3003;52200;53.490;14.376;2023-07-09T05:45:12;16.80;13.00;7.40
65556;PMS3003;52200;53.490;14.376;2023-07-09T05:47:38;15.00;11.25;7.00
65556;PMS3003;52200;53.490;14.376;2023-07-09T05:50:04;16.40;12.60;8.00
65556;PMS3003;52200;53.490;14.376;2023-07-09T05:52:30;16.80;13.00;8.00
65556;PMS3003;52200;53.490;14.376;2023-07-09T05:54:55;15.00;11.00;7.50
65556;PMS3003;52200;53.490;14.376;2023-07-09T05:57:21;14.00;11.00;7.25
65556;PMS3003;52200;53.490;14.376;2023-07-09T05:59:47;17.00;12.25;7.00
65556;PMS3003;52200;53.490;14.376;2023-07-09T06:02:14;16.40;12.40;6.80
65556;PMS3003;52200;53.490;14.376;2023-07-09T06:04:40;16.20;12.40;8.40
65556;PMS3003;52200;53.490;14.376;2023-07-09T06:07:07;11.60;8.00;5.00
65556;PMS3003;52200;53.490;14.376;2023-07-09T06:09:33;16.40;10.40;5.20
65556;PMS3003;52200;53.490;14.376;2023-07-09T06:11:59;13.80;10.80;6.40
65556;PMS3003;52200;53.490;14.376;2023-07-09T06:14:26;11.40;7.80;5.00
65556;PMS3003;52200;53.490;14.376;2023-07-09T06:16:51;13.25;8.00;4.00
65556;PMS3003;52200;53.490;14.376;2023-07-09T06:19:17;9.50;9.00;4.25
65556;PMS3003;52200;53.490;14.376;2023-07-09T06:21:42;9.00;9.00;4.50
65556;PMS3003;52200;53.490;14.376;2023-07-09T06:24:08;12.75;10.25;5.00
65556;PMS3003;52200;53.490;14.376;2023-07-09T06:26:34;8.40;8.20;4.00
65556;PMS3003;52200;53.490;14.376;2023-07-09T06:29:00;11.25;11.00;4.50
65556;PMS3003;52200;53.490;14.376;2023-07-09T06:31:25;8.80;8.80;4.00
65556;PMS3003;52200;53.490;14.376;2023-07-09T06:33:51;11.75;11.25;4.50
65556;PMS3003;52200;53.490;14.376;2023-07-09T06:36:17;10.20;10.00;4.40
65556;PMS3003;52200;53.490;14.376;2023-07-09T06:38:44;11.00;11.00;4.60
65556;PMS3003;52200;53.490;14.376;2023-07-09T06:41:10;11.40;11.00;4.20
65556;PMS3003;52200;53.490;14.376;2023-07-09T06:43:36;10.20;10.20;5.20
65556;PMS3003;52200;53.490;14.376;2023-07-09T06:46:04;10.00;9.40;4.00
65556;PMS3003;52200;53.490;14.376;2023-07-09T06:48:31;11.40;11.00;5.40
65556;PMS3003;52200;53.490;14.376;2023-07-09T06:50:58;12.20;11.20;5.00
65556;PMS3003;52200;53.490;14.376;2023-07-09T06:53:24;12.00;10.60;4.80
65556;PMS3003;52200;53.490;14.376;2023-07-09T06:55:50;13.00;11.60;5.60
65556;PMS3003;52200;53.490;14.376;2023-07-09T06:58:18;11.20;10.80;5.80
65556;PMS3003;52200;53.490;14.376;2023-07-09T07:00:44;10.80;10.60;4.40
65556;PMS3003;52200;53.490;14.376;2023-07-09T07:03:10;10.40;10.40;4.40
65556;PMS3003;52200;53.490;14.376;2023-07-09T07:05:36;8.00;8.00;3.25
65556;PMS3003;52200;53.490;14.376;2023-07-09T07:08:02;9.50;9.50;3.00
65556;PMS3003;52200;53.490;14.376;2023-07-09T07:10:29;8.20;8.20;3.20
65556;PMS3003;52200;53.490;14.376;2023-07-09T07:12:55;11.20;10.80;4.00
65556;PMS3003;52200;53.490;14.376;2023-07-09T07:15:21;8.50;8.50;4.00
65556;PMS3003;52200;53.490;14.376;2023-07-09T07:17:47;11.40;9.00;3.60
65556;PMS3003;52200;53.490;14.376;2023-07-09T07:20:13;8.00;7.20;3.80
65556;PMS3003;52200;53.490;14.376;2023-07-09T07:22:40;8.00;7.80;3.60
65556;PMS3003;52200;53.490;14.376;2023-07-09T07:25:06;7.00;6.50;2.50
65556;PMS3003;52200;53.490;14.376;2023-07-09T07:27:33;7.80;7.80;3.00
65556;PMS3003;52200;53.490;14.376;2023-07-09T07:29:59;10.60;9.80;3.80
65556;PMS3003;52200;53.490;14.376;2023-07-09T07:32:26;8.00;8.00;3.00
65556;PMS3003;52200;53.490;14.376;2023-07-09T07:34:51;7.00;6.75;3.00
65556;PMS3003;52200;53.490;14.376;2023-07-09T07:37:18;9.20;9.20;3.20
65556;PMS3003;52200;53.490;14.376;2023-07-09T07:39:47;8.20;7.40;2.20
65556;PMS3003;52200;53.490;14.376;2023-07-09T07:42:13;7.00;7.00;2.80
65556;PMS3003;52200;53.490;14.376;2023-07-09T07:44:38;8.75;8.75;3.00
65556;PMS3003;52200;53.490;14.376;2023-07-09T07:47:04;7.00;6.25;2.50
65556;PMS3003;52200;53.490;14.376;2023-07-09T07:49:30;7.80;7.80;3.00
65556;PMS3003;52200;53.490;14.376;2023-07-09T07:51:56;10.50;9.25;2.75
65556;PMS3003;52200;53.490;14.376;2023-07-09T07:54:21;8.00;7.50;2.75
65556;PMS3003;52200;53.490;14.376;2023-07-09T07:56:46;9.75;8.75;3.00
65556;PMS3003;52200;53.490;14.376;2023-07-09T07:59:12;7.75;7.25;2.00
65556;PMS3003;52200;53.490;14.376;2023-07-09T08:01:38;9.75;9.75;4.00
65556;PMS3003;52200;53.490;14.376;2023-07-09T08:04:03;9.50;8.25;3.00
65556;PMS3003;52200;53.490;14.376;2023-07-09T08:06:30;10.60;10.00;4.00
65556;PMS3003;52200;53.490;14.376;2023-07-09T08:08:56;12.80;10.00;3.40
65556;PMS3003;52200;53.490;14.376;2023-07-09T08:11:22;13.40;12.80;6.00
65556;PMS3003;52200;53.490;14.376;2023-07-09T08:13:48;14.20;14.20;7.40
65556;PMS3003;52200;53.490;14.376;2023-07-09T08:16:14;17.00;16.00;7.00
65556;PMS3003;52200;53.490;14.376;2023-07-09T08:18:39;16.25;14.00;6.25
65556;PMS3003;52200;53.490;14.376;2023-07-09T08:21:05;11.75;11.75;5.00
65556;PMS3003;52200;53.490;14.376;2023-07-09T08:23:31;10.75;10.00;4.75
65556;PMS3003;52200;53.490;14.376;2023-07-09T08:25:57;10.20;10.20;4.00
65556;PMS3003;52200;53.490;14.376;2023-07-09T08:28:24;7.80;7.60;3.40
65556;PMS3003;52200;53.490;14.376;2023-07-09T08:30:53;11.80;10.00;4.80
65556;PMS3003;52200;53.490;14.376;2023-07-09T08:33:19;10.00;9.80;4.00
65556;PMS3003;52200;53.490;14.376;2023-07-09T08:35:48;11.00;10.40;4.00
65556;PMS3003;52200;53.490;14.376;2023-07-09T08:38:14;11.60;11.60;5.80
65556;PMS3003;52200;53.490;14.376;2023-07-09T08:40:39;14.50;14.50;6.00
65556;PMS3003;52200;53.490;14.376;2023-07-09T08:43:18;15.20;13.40;5.40
65556;PMS3003;52200;53.490;14.376;2023-07-09T08:45:58;13.80;13.20;6.80
65556;PMS3003;52200;53.490;14.376;2023-07-09T08:48:33;13.80;13.60;6.20
65556;PMS3003;52200;53.490;14.376;2023-07-09T08:51:07;11.00;10.20;4.20
65556;PMS3003;52200;53.490;14.376;2023-07-09T08:53:55;7.00;6.80;2.80
65556;PMS3003;52200;53.490;14.376;2023-07-09T08:56:22;7.80;7.80;2.40
65556;PMS3003;52200;53.490;14.376;2023-07-09T08:58:49;6.40;6.00;1.80
65556;PMS3003;52200;53.490;14.376;2023-07-09T09:01:19;5.20;5.20;1.80
65556;PMS3003;52200;53.490;14.376;2023-07-09T09:03:49;8.00;7.40;2.00
65556;PMS3003;52200;53.490;14.376;2023-07-09T09:06:19;6.20;6.20;2.00
65556;PMS3003;52200;53.490;14.376;2023-07-09T09:14:39;9.00;8.20;2.00
65556;PMS3003;52200;53.490;14.376;2023-07-09T09:17:14;8.20;6.80;2.00
65556;PMS3003;52200;53.490;14.376;2023-07-09T09:22:14;6.00;6.00;2.20
65556;PMS3003;52200;53.490;14.376;2023-07-09T09:27:38;7.20;6.80;2.00
65556;PMS3003;52200;53.490;14.376;2023-07-09T09:30:04;8.00;8.00;2.00
65556;PMS3003;52200;53.490;14.376;2023-07-09T09:32:42;7.60;7.60;3.20
65556;PMS3003;52200;53.490;14.376;2023-07-09T09:35:16;8.00;7.60;2.00
65556;PMS3003;52200;53.490;14.376;2023-07-09T09:37:52;7.80;7.00;2.40
65556;PMS3003;52200;53.490;14.376;2023-07-09T09:40:19;6.80;6.80;2.00
65556;PMS3003;52200;53.490;14.376;2023-07-09T09:42:48;6.40;6.00;1.00
65556;PMS3003;52200;53.490;14.376;2023-07-09T09:45:18;6.20;5.80;1.20
65556;PMS3003;52200;53.490;14.376;2023-07-09T09:47:46;5.00;5.00;1.20
65556;PMS3003;52200;53.490;14.376;2023-07-09T09:50:20;5.40;5.40;2.00
65556;PMS3003;52200;53.490;14.376;2023-07-09T09:52:48;7.00;6.60;2.80
65556;PMS3003;52200;53.490;14.376;2023-07-09T09:55:23;8.00;7.00;2.20
65556;PMS3003;52200;53.490;14.376;2023-07-09T09:57:53;6.20;6.00;2.00
65556;PMS3003;52200;53.490;14.376;2023-07-09T10:00:22;5.60;5.60;2.00
65556;PMS3003;52200;53.490;14.376;2023-07-09T10:02:50;8.00;8.00;1.80
65556;PMS3003;52200;53.490;14.376;2023-07-09T10:05:21;5.60;5.60;2.00
65556;PMS3003;52200;53.490;14.376;2023-07-09T10:10:34;6.00;5.20;2.00
65556;PMS3003;52200;53.490;14.376;2023-07-09T10:16:13;9.60;8.00;2.00
65556;PMS3003;52200;53.490;14.376;2023-07-09T10:18:49;7.00;7.00;3.00
65556;PMS3003;52200;53.490;14.376;2023-07-09T10:21:27;6.60;5.60;1.60
65556;PMS3003;52200;53.490;14.376;2023-07-09T10:27:03;4.80;4.80;1.00
65556;PMS3003;52200;53.490;14.376;2023-07-09T10:29:51;6.00;6.00;1.80
65556;PMS3003;52200;53.490;14.376;2023-07-09T10:32:39;6.60;6.60;2.00
65556;PMS3003;52200;53.490;14.376;2023-07-09T10:35:22;6.00;6.00;1.00
65556;PMS3003;52200;53.490;14.376;2023-07-09T10:38:07;8.20;7.20;1.40
65556;PMS3003;52200;53.490;14.376;2023-07-09T10:40:38;5.20;5.20;1.40
65556;PMS3003;52200;53.490;14.376;2023-07-09T10:43:06;7.80;7.00;2.20
65556;PMS3003;52200;53.490;14.376;2023-07-09T10:45:49;7.60;7.60;2.00
65556;PMS3003;52200;53.490;14.376;2023-07-09T10:48:32;7.60;6.80;2.80
65556;PMS3003;52200;53.490;14.376;2023-07-09T10:51:02;7.60;7.00;2.20
65556;PMS3003;52200;53.490;14.376;2023-07-09T10:53:37;6.20;6.20;2.00
65556;PMS3003;52200;53.490;14.376;2023-07-09T10:56:11;6.80;6.80;2.00
65556;PMS3003;52200;53.490;14.376;2023-07-09T10:59:41;5.80;5.80;1.80
65556;PMS3003;52200;53.490;14.376;2023-07-09T11:01:55;6.00;6.00;2.00
65556;PMS3003;52200;53.490;14.376;2023-07-09T11:04:43;8.00;7.60;2.00
65556;PMS3003;52200;53.490;14.376;2023-07-09T11:07:15;7.00;6.80;2.40
65556;PMS3003;52200;53.490;14.376;2023-07-09T11:09:46;6.40;5.80;2.00
65556;PMS3003;52200;53.490;14.376;2023-07-09T11:12:19;6.80;6.40;2.00
65556;PMS3003;52200;53.490;14.376;2023-07-09T11:15:15;5.20;5.20;1.60
65556;PMS3003;52200;53.490;14.376;2023-07-09T11:17:46;5.00;5.00;1.40
65556;PMS3003;52200;53.490;14.376;2023-07-09T11:20:18;5.60;5.60;2.00
65556;PMS3003;52200;53.490;14.376;2023-07-09T11:22:50;6.20;6.20;1.60
65556;PMS3003;52200;53.490;14.376;2023-07-09T11:25:27;5.40;5.40;1.00
65556;PMS3003;52200;53.490;14.376;2023-07-09T11:28:00;6.40;6.40;1.60
65556;PMS3003;52200;53.490;14.376;2023-07-09T11:30:30;6.00;5.00;0.00
65556;PMS3003;52200;53.490;14.376;2023-07-09T11:33:03;6.60;6.60;2.00
65556;PMS3003;52200;53.490;14.376;2023-07-09T11:35:51;7.00;6.40;1.00
65556;PMS3003;52200;53.490;14.376;2023-07-09T11:38:21;7.00;7.00;2.00
65556;PMS3003;52200;53.490;14.376;2023-07-09T11:40:52;5.60;5.60;2.00
65556;PMS3003;52200;53.490;14.376;2023-07-09T11:43:27;7.80;7.60;2.00
65556;PMS3003;52200;53.490;14.376;2023-07-09T11:45:53;5.40;5.40;1.60
65556;PMS3003;52200;53.490;14.376;2023-07-09T11:48:25;6.40;6.20;1.00
65556;PMS3003;52200;53.490;14.376;2023-07-09T11:50:54;6.00;6.00;1.00
65556;PMS3003;52200;53.490;14.376;2023-07-09T11:55:58;6.60;6.60;2.00
65556;PMS3003;52200;53.490;14.376;2023-07-09T11:58:24;8.75;7.75;1.75
65556;PMS3003;52200;53.490;14.376;2023-07-09T12:00:50;6.75;6.50;2.50
65556;PMS3003;52200;53.490;14.376;2023-07-09T12:03:29;6.40;6.00;2.00
65556;PMS3003;52200;53.490;14.376;2023-07-09T12:06:05;7.80;7.00;2.40
65556;PMS3003;52200;53.490;14.376;2023-07-09T12:08:39;8.40;7.80;3.00
65556;PMS3003;52200;53.490;14.376;2023-07-09T12:11:17;7.20;6.20;2.00
65556;PMS3003;52200;53.490;14.376;2023-07-09T12:13:44;8.80;7.60;2.20
65556;PMS3003;52200;53.490;14.376;2023-07-09T12:16:23;5.00;5.00;1.00
65556;PMS3003;52200;53.490;14.376;2023-07-09T12:18:50;7.20;6.60;2.00
65556;PMS3003;52200;53.490;14.376;2023-07-09T12:21:16;6.75;6.75;1.75
65556;PMS3003;52200;53.490;14.376;2023-07-09T12:23:42;6.40;6.40;2.20
65556;PMS3003;52200;53.490;14.376;2023-07-09T12:26:14;5.50;5.50;2.00
65556;PMS3003;52200;53.490;14.376;2023-07-09T12:28:41;5.80;5.80;1.20
65556;PMS3003;52200;53.490;14.376;2023-07-09T12:31:14;7.00;7.00;2.25
65556;PMS3003;52200;53.490;14.376;2023-07-09T12:33:47;6.20;6.20;2.00
65556;PMS3003;52200;53.490;14.376;2023-07-09T12:36:14;9.00;8.60;3.00
65556;PMS3003;52200;53.490;14.376;2023-07-09T12:38:43;8.00;7.60;2.40
65556;PMS3003;52200;53.490;14.376;2023-07-09T12:41:22;7.60;6.80;2.00
65556;PMS3003;52200;53.490;14.376;2023-07-09T12:43:54;6.40;6.20;2.00
65556;PMS3003;52200;53.490;14.376;2023-07-09T12:46:23;6.00;6.00;2.20
65556;PMS3003;52200;53.490;14.376;2023-07-09T12:48:50;7.00;7.00;2.00
65556;PMS3003;52200;53.490;14.376;2023-07-09T12:51:21;8.00;7.00;2.00
65556;PMS3003;52200;53.490;14.376;2023-07-09T12:53:59;7.40;6.40;3.00
65556;PMS3003;52200;53.490;14.376;2023-07-09T12:56:38;7.40;7.40;2.80
65556;PMS3003;52200;53.490;14.376;2023-07-09T12:59:07;9.00;8.50;4.00
65556;PMS3003;52200;53.490;14.376;2023-07-09T13:01:47;9.00;9.00;4.00
65556;PMS3003;52200;53.490;14.376;2023-07-09T13:04:14;9.60;8.20;3.00
65556;PMS3003;52200;53.490;14.376;2023-07-09T13:06:44;8.50;8.50;3.50
65556;PMS3003;52200;53.490;14.376;2023-07-09T13:09:13;9.80;8.80;3.80
65556;PMS3003;52200;53.490;14.376;2023-07-09T13:11:45;9.40;7.80;3.00
65556;PMS3003;52200;53.490;14.376;2023-07-09T13:14:22;9.00;8.40;3.40
65556;PMS3003;52200;53.490;14.376;2023-07-09T13:16:52;9.40;9.40;4.00
65556;PMS3003;52200;53.490;14.376;2023-07-09T13:19:18;10.00;9.00;4.00
65556;PMS3003;52200;53.490;14.376;2023-07-09T13:21:44;10.80;10.00;4.40
65556;PMS3003;52200;53.490;14.376;2023-07-09T13:26:49;9.00;9.00;3.40
65556;PMS3003;52200;53.490;14.376;2023-07-09T13:29:15;8.60;8.20;3.20
65556;PMS3003;52200;53.490;14.376;2023-07-09T13:31:47;8.60;8.40;3.20
65556;PMS3003;52200;53.490;14.376;2023-07-09T13:36:46;8.40;8.20;3.60
65556;PMS3003;52200;53.490;14.376;2023-07-09T13:39:12;8.00;7.60;3.00
65556;PMS3003;52200;53.490;14.376;2023-07-09T13:41:39;9.00;9.00;3.00
65556;PMS3003;52200;53.490;14.376;2023-07-09T13:44:10;10.00;10.00;4.50
65556;PMS3003;52200;53.490;14.376;2023-07-09T13:46:38;8.60;7.80;2.80
65556;PMS3003;52200;53.490;14.376;2023-07-09T13:49:08;11.00;9.25;3.00
65556;PMS3003;52200;53.490;14.376;2023-07-09T13:51:39;8.00;8.00;3.00
65556;PMS3003;52200;53.490;14.376;2023-07-09T13:54:20;7.00;7.00;2.20
65556;PMS3003;52200;53.490;14.376;2023-07-09T13:56:50;8.00;8.00;3.00
65556;PMS3003;52200;53.490;14.376;2023-07-09T13:59:17;8.80;8.60;3.20
65556;PMS3003;52200;53.490;14.376;2023-07-09T14:01:45;8.60;8.00;2.60
65556;PMS3003;52200;53.490;14.376;2023-07-09T14:04:14;10.40;9.20;3.00
65556;PMS3003;52200;53.490;14.376;2023-07-09T14:06:42;8.40;7.80;2.80
65556;PMS3003;52200;53.490;14.376;2023-07-09T14:09:11;7.20;7.00;2.20
65556;PMS3003;52200;53.490;14.376;2023-07-09T14:11:38;7.60;7.20;2.40
65556;PMS3003;52200;53.490;14.376;2023-07-09T14:16:43;6.20;6.00;2.00
65556;PMS3003;52200;53.490;14.376;2023-07-09T14:19:13;7.40;6.60;2.40
65556;PMS3003;52200;53.490;14.376;2023-07-09T14:21:41;8.20;7.60;2.20
65556;PMS3003;52200;53.490;14.376;2023-07-09T14:24:20;8.00;6.60;2.60
65556;PMS3003;52200;53.490;14.376;2023-07-09T14:26:47;8.60;8.00;3.00
65556;PMS3003;52200;53.490;14.376;2023-07-09T14:29:14;7.00;6.00;3.00
65556;PMS3003;52200;53.490;14.376;2023-07-09T14:31:40;7.20;6.80;2.00
65556;PMS3003;52200;53.490;14.376;2023-07-09T14:34:17;7.40;7.40;2.20
65556;PMS3003;52200;53.490;14.376;2023-07-09T14:36:43;7.40;6.00;1.80
65556;PMS3003;52200;53.490;14.376;2023-07-09T14:39:09;6.00;6.00;1.75
65556;PMS3003;52200;53.490;14.376;2023-07-09T14:41:35;8.00;7.00;2.00
65556;PMS3003;52200;53.490;14.376;2023-07-09T14:44:01;6.00;6.00;2.00